Flight Track Log - Related Links

Times and Time Zones

All times are in EDT time to prevent confusion due to time zone crossing. See the EJA929 flight status page for this flight to view local times or setup timezone preferences in your user account.

Time Position Orientation Groundspeed Altitude Reporting Facility
EDT Latitude Longitude Course Direction KTS MPH feet Rate Location/Type
Wed 11:48:57 47.4972 -122.2742 127° Southeast 193 222 1,800  Level Seattle Center
Wed 11:49:58 47.4439 -122.2272 149° Southeast 218 251 5,100 2,951 Climbing Seattle Center
Wed 11:50:59 47.3750 -122.2092 170° South 255 293 7,800 2,902 Climbing Seattle Center
Wed 11:52:00 47.3036 -122.1867 168° South 260 299 11,000 2,557 Climbing Seattle Center
Wed 11:53:01 47.2261 -122.1664 170° South 283 326 13,000 2,016 Climbing Seattle Center
Wed 11:54:00 47.0746 -121.4236 127° Southeast  Level Estimated
Wed 11:54:02 47.1308 -122.1364 168° South 324 373 15,100  Level Seattle Center
Wed 11:55:03 47.0389 -122.1100 169° South 338 389 16,700 1,328 Climbing Seattle Center
Wed 11:56:04 46.9397 -122.0825 169° South 363 418 17,800 1,131 Climbing Seattle Center
Wed 11:57:05 46.8372 -122.0531 169° South 375 432 19,000 1,131 Climbing Seattle Center
Wed 11:58:06 46.7436 -121.9800 152° Southeast 395 455 20,100 1,230 Climbing Seattle Center
Wed 11:59:07 46.6775 -121.8447 125° Southeast 412 474 21,500 1,475 Climbing Seattle Center
Wed 12:00:08 46.6114 -121.7122 126° Southeast 411 473 23,100 1,623 Climbing Seattle Center
Wed 12:01:09 46.5358 -121.5628 126° Southeast 413 475 24,800 1,623 Climbing Seattle Center
Wed 12:02:10 46.4678 -121.4283 126° Southeast 415 478 26,400 1,574 Climbing Seattle Center
Wed 12:03:11 46.3989 -121.2925 126° Southeast 417 480 28,000 1,623 Climbing Seattle Center
Wed 12:04:12 46.3297 -121.1569 126° Southeast 420 483 29,700 1,525 Climbing Seattle Center
Wed 12:05:13 46.2589 -121.0181 126° Southeast 428 493 31,100 1,672 Climbing Seattle Center
Wed 12:06:14 46.1856 -120.8764 127° Southeast 437 503 33,100 1,967 Climbing Seattle Center
Wed 12:07:15 46.1139 -120.7372 127° Southeast 436 502 35,100 2,213 Climbing Seattle Center
Wed 12:08:16 46.0422 -120.5994 127° Southeast 431 496 37,600 1,869 Climbing Seattle Center
Wed 12:09:17 45.9714 -120.4642 127° Southeast 425 489 38,900 1,024 Climbing Seattle Center
Wed 12:10:19 45.8964 -120.3228 127° Southeast 440 506 39,700 976 Climbing Seattle Center
Wed 12:11:20 45.8219 -120.1819 127° Southeast 443 510 40,900 639 Climbing Seattle Center
Wed 12:12:21 45.7294 -120.0072 127° Southeast 456 525 41,000 49 Climbing Seattle Center
Wed 12:13:22 45.6489 -119.8581 128° Southeast 466 536 41,000  Level Seattle Center
Wed 12:14:23 45.5717 -119.7089 126° Southeast 468 539 41,000  Level Seattle Center
Wed 12:15:24 45.4958 -119.5639 127° Southeast 459 528 41,000  Level Seattle Center
Wed 12:16:25 45.4192 -119.4192 127° Southeast 456 525 41,000  Level Seattle Center
Wed 12:17:26 45.3428 -119.2761 127° Southeast 454 522 41,000  Level Seattle Center
Wed 12:18:27 45.2689 -119.1372 127° Southeast 444 511 41,000  Level Seattle Center
Wed 12:19:29 45.1942 -118.9981 127° Southeast 442 509 41,000  Level Seattle Center
Wed 12:20:30 45.1203 -118.8619 128° Southeast 439 505 41,000  Level Seattle Center
Wed 12:21:31 45.0464 -118.7244 127° Southeast 438 504 41,000  Level Seattle Center
Wed 12:22:32 44.9714 -118.5878 128° Southeast 439 505 41,000  Level Seattle Center
Wed 12:23:33 44.8975 -118.4506 127° Southeast 440 506 41,000  Level Seattle Center
Wed 12:24:34 44.8200 -118.3092 128° Southeast 451 519 41,000  Level Seattle Center
Wed 12:25:35 44.7414 -118.1658 128° Southeast 461 531 41,000  Level Seattle Center
Wed 12:26:25 44.6600 -118.0225 129° Southeast 466 536 41,000  Level Salt Center
Wed 12:27:27 44.5789 -117.8775 128° Southeast 471 542 41,000  Level Salt Center
Wed 12:28:29 44.4972 -117.7314 128° Southeast 474 545 41,000  Level Salt Center
Wed 12:29:31 44.4111 -117.5822 129° Southeast 490 564 41,000  Level Salt Center
Wed 12:30:33 44.3211 -117.4228 128° Southeast 473 544 41,000  Level Salt Center
Wed 12:31:35 44.2353 -117.2719 128° Southeast 476 548 41,000  Level Salt Center
Wed 12:32:37 44.1492 -117.1231 129° Southeast 473 544 41,000  Level Salt Center
Wed 12:33:39 44.0647 -116.9725 128° Southeast 470 541 41,000  Level Salt Center
Wed 12:34:41 43.9794 -116.8231 128° Southeast 472 543 41,000  Level Salt Center
Wed 12:35:43 43.8994 -116.6878 129° Southeast 470 541 41,000  Level Salt Center
Wed 12:36:45 43.8131 -116.5400 129° Southeast 471 542 41,000  Level Salt Center
Wed 12:37:48 43.7275 -116.3928 129° Southeast 471 542 41,000  Level Salt Center
Wed 12:38:50 43.6411 -116.2442 129° Southeast 476 548 41,000  Level Salt Center
Wed 12:39:52 43.5536 -116.0964 129° Southeast 477 549 41,000  Level Salt Center
Wed 12:40:54 43.4717 -115.9581 129° Southeast 479 551 41,000  Level Salt Center
Wed 12:41:56 43.3836 -115.8097 129° Southeast 481 554 41,000  Level Salt Center
Wed 12:42:58 43.2939 -115.6603 129° Southeast 482 555 41,000  Level Salt Center
Wed 12:44:00 43.2047 -115.5128 130° Southeast 480 552 41,000  Level Salt Center
Wed 12:45:02 43.1161 -115.3658 130° Southeast 477 549 41,000  Level Salt Center
Wed 12:46:04 43.0286 -115.2242 130° Southeast 468 539 41,000  Level Salt Center
Wed 12:47:06 42.9489 -115.0942 130° Southeast 465 535 41,000  Level Salt Center
Wed 12:48:08 42.8619 -114.9533 130° Southeast 463 533 41,000  Level Salt Center
Wed 12:49:10 42.7750 -114.8125 130° Southeast 465 535 41,000  Level Salt Center
Wed 12:50:12 42.6875 -114.6725 130° Southeast 464 534 41,000  Level Salt Center
Wed 12:51:14 42.6069 -114.5436 130° Southeast 471 542 41,000  Level Salt Center
Wed 12:52:16 42.5228 -114.4086 130° Southeast 470 541 41,000  Level Salt Center
Wed 12:53:18 42.4375 -114.2733 130° Southeast 471 542 41,000  Level Salt Center
Wed 12:54:20 42.3350 -114.1100 130° Southeast 476 548 41,000  Level Salt Center
Wed 12:55:22 42.2481 -113.9756 131° Southeast 476 548 41,000  Level Salt Center
Wed 12:56:24 42.1619 -113.8417 131° Southeast 474 545 41,000  Level Salt Center
Wed 12:57:26 42.0758 -113.7069 131° Southeast 475 547 41,000  Level Salt Center
Wed 12:58:28 41.9903 -113.5739 131° Southeast 473 544 41,000  Level Salt Center
Wed 12:59:30 41.9036 -113.4408 131° Southeast 473 544 41,000  Level Salt Center
Wed 13:00:32 41.7994 -113.2819 131° Southeast 473 544 41,000  Level Salt Center
Wed 13:01:34 41.7131 -113.1483 131° Southeast 476 548 41,000  Level Salt Center
Wed 13:02:36 41.6258 -113.0164 131° Southeast 475 547 41,000  Level Salt Center
Wed 13:03:38 41.5378 -112.8856 132° Southeast 476 548 41,000  Level Salt Center
Wed 13:04:40 41.4492 -112.7531 132° Southeast 478 550 41,000  Level Salt Center
Wed 13:05:41 41.3617 -112.6217 132° Southeast 478 550 41,000  Level Salt Center
Wed 13:06:43 41.2572 -112.4647 131° Southeast 473 544 41,000  Level Salt Center
Wed 13:07:45 41.1694 -112.3342 132° Southeast 476 548 41,000  Level Salt Center
Wed 13:08:47 41.0822 -112.2044 132° Southeast 475 547 41,000  Level Salt Center
Wed 13:09:49 40.9953 -112.0769 132° Southeast 473 544 41,000  Level Salt Center
Wed 13:10:51 40.9092 -111.9483 132° Southeast 478 550 41,000  Level Salt Center
Wed 13:11:52 40.8011 -111.7944 133° Southeast 500 575 41,000  Level Salt Center
Wed 13:12:54 40.7139 -111.6658 132° Southeast 477 549 41,000  Level Salt Center
Wed 13:13:56 40.6253 -111.5356 132° Southeast 479 551 41,000  Level Salt Center
Wed 13:14:58 40.5361 -111.4072 132° Southeast 477 549 41,000  Level Salt Center
Wed 13:16:00 40.4464 -111.2792 133° Southeast 477 549 41,000  Level Salt Center
Wed 13:17:01 40.3378 -111.1281 133° Southeast 476 548 41,000  Level Salt Center
Wed 13:18:03 40.2483 -110.9989 132° Southeast 479 551 41,000  Level Salt Center
Wed 13:19:05 40.1644 -110.8808 133° Southeast 482 555 41,000  Level Salt Center
Wed 13:20:07 40.0631 -110.7383 133° Southeast 480 552 41,000  Level Salt Center
Wed 13:21:09 39.9758 -110.6175 133° Southeast 478 550 41,000  Level Salt Center
Wed 13:22:11 39.8747 -110.4744 133° Southeast 481 554 41,000  Level Salt Center
Wed 13:23:13 39.7861 -110.3525 133° Southeast 484 557 41,000  Level Salt Center
Wed 13:24:14 39.6836 -110.2108 133° Southeast 483 556 41,000  Level Salt Center
Wed 13:25:16 39.5942 -110.0878 133° Southeast 489 563 41,000  Level Salt Center
Wed 13:26:18 39.4903 -109.9450 133° Southeast 489 563 41,000 -97 Level Salt Center
Wed 13:27:20 39.4014 -109.8239 134° Southeast 487 560 40,800 -1,016 Descending Salt Center
Wed 13:28:22 39.2956 -109.6822 134° Southeast 491 565 38,900 -1,694 Descending Salt Center
Wed 13:29:24 39.1889 -109.5806 144° Southeast 498 573 37,300 -1,790 Descending Salt Center
Wed 13:30:26 39.0622 -109.4583 143° Southeast 507 583 35,200 -1,839 Descending Salt Center
Wed 13:31:28 38.9706 -109.3336 133° Southeast 503 579 33,500 -1,790 Descending Salt Center
Wed 13:32:30 38.8653 -109.1817 132° Southeast 511 588 31,500 -1,887 Descending Salt Center
Wed 13:33:32 38.7731 -109.0511 132° Southeast 516 594 29,600 -2,129 Descending Salt Center
Wed 13:34:34 38.6658 -108.8986 132° Southeast 518 596 27,100 -2,226 Descending Salt Center
Wed 13:35:36 38.5767 -108.7722 132° Southeast 511 588 25,000 -1,987 Descending Salt Center
Wed 13:37:05 38.4531 -108.5972 132° Southeast 408 470 22,100 -1,828 Descending Denver Center
Wed 13:38:07 38.3908 -108.5100 132° Southeast 345 397 20,400 -1,544 Descending Denver Center
Wed 13:39:21 38.3350 -108.4325 133° Southeast 314 361 18,600 -1,664 Descending Denver Center
Wed 13:40:24 38.2644 -108.3386 134° Southeast 300 345 16,600 -1,664 Descending Denver Center
Wed 13:41:38 38.2006 -108.2747 142° Southeast 291 335 14,800 -1,378 Descending Denver Center
Wed 13:42:52 38.1269 -108.1994 141° Southeast 282 325 13,200 -613 Descending Denver Center
Wed 13:43:55 38.0508 -108.1225 141° Southeast 248 285 13,400 190 Climbing Denver Center
Wed 13:45:00 37.9838 -107.9747 134° Southeast  Level Estimated
Wed 13:52:00 37.9538 -107.9088 134° Southeast  Level Estimated
Wed 13:53:00 37.9538 -107.9088 134° Southeast  Level Estimated
Wed 13:54:00 37.9538 -107.9088 134° Southeast  Level Estimated
Wed 13:55:00 37.9538 -107.9088 134° Southeast  Level Estimated
Wed 13:56:00 37.9538 -107.9088 134° Southeast  Level Estimated
Wed 13:57:00 37.9538 -107.9088 134° Southeast  Level Estimated
Wed 13:58:00 37.9538 -107.9088 134° Southeast  Level Estimated
Wed 13:59:00 37.9538 -107.9088 134° Southeast  Level Estimated
Wed 14:00:00 37.9538 -107.9088 134° Southeast  Level Estimated

Login

Don't have an account? Register now (free) for customized features, flight alerts, and more!